Time;durP1;ratioP1;P1;durP2;ratioP2;P2;SDS_P1;SDS_P2;PMS_P1;PMS_P2;Temp;Humidity;BMP_temperature;BMP_pressure;BME280_temperature;BME280_humidity;BME280_pressure;Samples;Min_cycle;Max_cycle;Signal;HPM_P1;HPM_P2
2024/04/04 00:00:08;;;;;;;;;2.33;2.33;;;;;;;;5100357;27;46337;-53
2024/04/04 00:02:33;;;;;;;;;4.00;1.00;;;;;;;;5082089;27;45621;-54
2024/04/04 00:04:59;;;;;;;;;4.00;2.67;;;;;;;;5101296;27;45327;-53
2024/04/04 00:07:24;;;;;;;;;3.00;3.00;;;;;;;;5080665;27;45498;-53
2024/04/04 00:09:50;;;;;;;;;5.67;4.00;;;;;;;;5098831;27;45698;-54
2024/04/04 00:12:15;;;;;;;;;4.00;1.67;;;;;;;;5097944;27;45351;-52
2024/04/04 00:14:41;;;;;;;;;8.33;5.00;;;;;;;;5093551;27;45393;-53
2024/04/04 00:17:06;;;;;;;;;5.33;3.00;;;;;;;;5084152;27;45280;-53
2024/04/04 00:19:31;;;;;;;;;7.00;3.67;;;;;;;;5090664;27;46542;-54
2024/04/04 00:21:56;;;;;;;;;2.00;2.00;;;;;;;;5093469;27;45347;-54
2024/04/04 00:24:21;;;;;;;;;7.33;2.67;;;;;;;;5096124;27;45657;-54
2024/04/04 00:26:47;;;;;;;;;4.33;2.67;;;;;;;;5098433;27;45418;-54
2024/04/04 00:29:12;;;;;;;;;5.33;2.33;;;;;;;;5087645;27;46496;-53
2024/04/04 00:31:37;;;;;;;;;5.33;4.33;;;;;;;;5098667;27;45298;-52
2024/04/04 00:34:02;;;;;;;;;2.00;2.00;;;;;;;;5099280;27;45445;-53
2024/04/04 00:36:27;;;;;;;;;1.67;1.67;;;;;;;;5100293;27;45350;-52
2024/04/04 00:38:52;;;;;;;;;3.67;2.00;;;;;;;;5099797;27;46932;-54
2024/04/04 00:41:18;;;;;;;;;4.67;2.67;;;;;;;;5099211;27;45284;-53
2024/04/04 00:43:43;;;;;;;;;4.33;3.00;;;;;;;;5099624;27;45478;-54
2024/04/04 00:46:08;;;;;;;;;4.00;2.00;;;;;;;;5096909;27;45549;-53
2024/04/04 00:48:33;;;;;;;;;6.00;1.67;;;;;;;;5081476;27;47303;-53
2024/04/04 00:50:58;;;;;;;;;5.33;5.00;;;;;;;;5099538;27;45275;-54
2024/04/04 00:53:26;;;;;;;;;4.33;2.67;;;;;;;;5099877;27;45365;-53
2024/04/04 00:55:52;;;;;;;;;3.00;2.33;;;;;;;;5100233;27;45607;-54
2024/04/04 00:58:18;;;;;;;;;4.33;1.67;;;;;;;;5099200;27;45579;-53
2024/04/04 01:00:43;;;;;;;;;3.67;3.00;;;;;;;;5080526;27;45247;-51
2024/04/04 01:03:08;;;;;;;;;5.33;3.00;;;;;;;;5099902;27;45425;-54
2024/04/04 01:05:33;;;;;;;;;4.00;2.67;;;;;;;;5099163;27;45444;-54
2024/04/04 01:07:59;;;;;;;;;4.33;3.67;;;;;;;;5087846;27;46606;-53
2024/04/04 01:10:24;;;;;;;;;6.33;2.00;;;;;;;;5098491;27;45353;-54
2024/04/04 01:12:49;;;;;;;;;2.33;2.00;;;;;;;;5099149;27;45697;-53
2024/04/04 01:15:14;;;;;;;;;7.00;3.00;;;;;;;;5093901;27;45684;-53
2024/04/04 01:17:40;;;;;;;;;1.00;1.00;;;;;;;;5094733;27;45704;-54
2024/04/04 01:20:05;;;;;;;;;1.33;1.33;;;;;;;;5098313;27;45618;-54
2024/04/04 01:22:30;;;;;;;;;5.67;3.33;;;;;;;;5074532;28;45744;-54
2024/04/04 01:24:55;;;;;;;;;5.33;1.00;;;;;;;;5085001;27;45692;-53
2024/04/04 01:27:21;;;;;;;;;4.00;2.67;;;;;;;;5086610;27;45759;-53
2024/04/04 01:29:46;;;;;;;;;2.67;2.00;;;;;;;;5080342;27;45475;-54
2024/04/04 01:32:11;;;;;;;;;4.67;2.00;;;;;;;;5096850;27;45645;-53
2024/04/04 01:34:36;;;;;;;;;4.00;3.00;;;;;;;;5095136;27;45381;-54
2024/04/04 01:37:01;;;;;;;;;2.67;2.67;;;;;;;;5095923;27;45502;-51
2024/04/04 01:39:27;;;;;;;;;2.33;2.33;;;;;;;;5099405;27;45375;-51
2024/04/04 01:41:55;;;;;;;;;4.00;3.00;;;;;;;;5099186;27;45344;-54
2024/04/04 01:44:21;;;;;;;;;4.33;1.33;;;;;;;;5094221;27;45434;-54
2024/04/04 01:46:46;;;;;;;;;3.33;1.33;;;;;;;;5097427;27;45603;-53
2024/04/04 01:49:11;;;;;;;;;2.67;2.00;;;;;;;;5095884;27;45409;-53
2024/04/04 01:51:36;;;;;;;;;3.33;1.00;;;;;;;;5096217;27;45517;-53
2024/04/04 01:54:02;;;;;;;;;7.00;3.00;;;;;;;;5084717;27;46604;-54
2024/04/04 01:56:27;;;;;;;;;2.00;2.00;;;;;;;;5097393;27;45713;-53
2024/04/04 01:58:52;;;;;;;;;4.67;3.67;;;;;;;;5095925;27;45315;-53
2024/04/04 02:01:17;;;;;;;;;1.00;0.00;;;;;;;;5102103;27;45282;-54
2024/04/04 02:03:42;;;;;;;;;3.33;2.00;;;;;;;;5101336;27;45557;-57
2024/04/04 02:06:08;;;;;;;;;2.00;2.00;;;;;;;;5098200;27;46414;-54
2024/04/04 02:08:33;;;;;;;;;7.67;2.00;;;;;;;;5075967;27;45413;-53
2024/04/04 02:10:58;;;;;;;;;4.00;2.00;;;;;;;;5096816;27;45448;-54
2024/04/04 02:13:26;;;;;;;;;3.33;0.67;;;;;;;;5094687;27;45400;-53
2024/04/04 02:15:52;;;;;;;;;3.33;2.00;;;;;;;;5094519;27;46084;-53
2024/04/04 02:18:17;;;;;;;;;2.33;2.33;;;;;;;;5095992;27;45637;-54
2024/04/04 02:20:42;;;;;;;;;6.00;3.00;;;;;;;;5081689;27;45449;-54
2024/04/04 02:23:08;;;;;;;;;1.33;1.33;;;;;;;;5096704;27;45541;-53
2024/04/04 02:25:33;;;;;;;;;3.00;1.00;;;;;;;;5100714;27;45228;-52
2024/04/04 02:27:58;;;;;;;;;5.00;1.00;;;;;;;;5101802;27;45472;-53
2024/04/04 02:30:23;;;;;;;;;0.00;0.00;;;;;;;;5096469;27;45284;-53
2024/04/04 02:32:49;;;;;;;;;4.00;2.00;;;;;;;;5102463;27;45611;-54
2024/04/04 02:35:15;;;;;;;;;2.00;2.00;;;;;;;;5101767;27;46975;-54
2024/04/04 02:37:40;;;;;;;;;3.00;2.00;;;;;;;;5083172;27;45363;-55
2024/04/04 02:40:05;;;;;;;;;3.00;1.00;;;;;;;;5098688;27;45290;-51
2024/04/04 02:42:31;;;;;;;;;1.33;1.33;;;;;;;;5101850;27;45350;-53
2024/04/04 02:44:56;;;;;;;;;4.00;1.00;;;;;;;;5092241;27;46386;-54
2024/04/04 02:47:21;;;;;;;;;3.00;1.33;;;;;;;;5101205;27;45232;-53
2024/04/04 02:49:49;;;;;;;;;2.33;0.67;;;;;;;;5101118;27;45659;-54
2024/04/04 02:52:14;;;;;;;;;2.00;2.00;;;;;;;;5101105;27;45529;-54
2024/04/04 02:54:39;;;;;;;;;2.00;1.33;;;;;;;;5101321;27;46164;-54
2024/04/04 02:57:05;;;;;;;;;1.00;1.00;;;;;;;;5100355;27;45422;-54
2024/04/04 02:59:30;;;;;;;;;1.00;1.00;;;;;;;;5097949;27;45576;-53
2024/04/04 03:01:55;;;;;;;;;6.00;2.00;;;;;;;;5086298;27;45391;-54
2024/04/04 03:04:20;;;;;;;;;1.00;1.00;;;;;;;;5099121;27;45495;-53
2024/04/04 03:06:45;;;;;;;;;2.00;1.00;;;;;;;;5099576;27;45287;-54
2024/04/04 03:09:11;;;;;;;;;1.00;1.00;;;;;;;;5101358;27;45377;-53
2024/04/04 03:11:36;;;;;;;;;3.33;1.67;;;;;;;;5102022;27;45475;-53
2024/04/04 03:14:02;;;;;;;;;2.00;1.00;;;;;;;;5095741;27;45413;-53
2024/04/04 03:16:27;;;;;;;;;3.00;1.00;;;;;;;;5101462;27;45349;-53
2024/04/04 03:18:52;;;;;;;;;2.00;1.00;;;;;;;;5100577;27;45234;-53
2024/04/04 03:21:17;;;;;;;;;2.00;2.00;;;;;;;;5101266;27;45414;-52
2024/04/04 03:23:42;;;;;;;;;4.00;0.00;;;;;;;;5099779;27;47123;-53
2024/04/04 03:26:08;;;;;;;;;2.33;1.00;;;;;;;;5100285;27;45444;-53
2024/04/04 03:28:33;;;;;;;;;2.00;1.00;;;;;;;;5091729;27;45408;-53
2024/04/04 03:30:58;;;;;;;;;2.00;1.00;;;;;;;;5101200;27;45612;-53
2024/04/04 03:33:23;;;;;;;;;2.00;1.00;;;;;;;;5100151;27;46595;-53
2024/04/04 03:35:48;;;;;;;;;3.00;1.00;;;;;;;;5101433;27;45448;-53
2024/04/04 03:38:14;;;;;;;;;1.33;1.00;;;;;;;;5100645;27;45566;-53
2024/04/04 03:40:39;;;;;;;;;1.33;1.33;;;;;;;;5101213;27;45641;-53
2024/04/04 03:43:05;;;;;;;;;1.00;1.00;;;;;;;;5099582;27;45612;-53
2024/04/04 03:45:31;;;;;;;;;2.00;2.00;;;;;;;;5100867;27;45322;-52
2024/04/04 03:47:59;;;;;;;;;1.00;1.00;;;;;;;;5090218;27;45480;-53
2024/04/04 03:50:26;;;;;;;;;1.33;1.00;;;;;;;;5096866;27;45531;-54
2024/04/04 03:52:51;;;;;;;;;1.00;1.00;;;;;;;;5089121;27;46223;-55
2024/04/04 03:55:16;;;;;;;;;1.00;1.00;;;;;;;;5070189;28;45379;-54
2024/04/04 03:57:42;;;;;;;;;2.00;2.00;;;;;;;;5086942;27;45314;-51
2024/04/04 04:00:09;;;;;;;;;3.00;2.00;;;;;;;;5100496;27;45394;-53
2024/04/04 04:02:34;;;;;;;;;2.00;0.67;;;;;;;;5094971;27;46664;-51
2024/04/04 04:04:59;;;;;;;;;2.67;1.00;;;;;;;;5100854;27;45373;-51
2024/04/04 04:07:25;;;;;;;;;2.33;1.67;;;;;;;;5089664;27;45161;-53
2024/04/04 04:09:50;;;;;;;;;3.00;1.00;;;;;;;;5099677;27;45384;-54
2024/04/04 04:12:15;;;;;;;;;1.00;1.00;;;;;;;;5096136;27;45822;-53
2024/04/04 04:14:40;;;;;;;;;2.00;1.00;;;;;;;;5090197;27;45240;-53
2024/04/04 04:17:05;;;;;;;;;3.00;0.00;;;;;;;;5095731;27;45291;-53
2024/04/04 04:19:30;;;;;;;;;1.00;1.00;;;;;;;;5087532;27;45823;-54
2024/04/04 04:21:56;;;;;;;;;4.00;0.00;;;;;;;;5094947;27;45704;-53
2024/04/04 04:24:21;;;;;;;;;1.00;1.00;;;;;;;;5091622;27;45447;-54
2024/04/04 04:26:46;;;;;;;;;1.00;0.00;;;;;;;;5094938;27;45730;-53
2024/04/04 04:29:17;;;;;;;;;0.00;0.00;;;;;;;;5087997;27;45294;-55
2024/04/04 04:31:43;;;;;;;;;0.00;0.00;;;;;;;;5099303;27;46236;-50
2024/04/04 04:34:08;;;;;;;;;0.67;0.00;;;;;;;;5097877;27;45808;-54
2024/04/04 04:36:52;;;;;;;;;0.00;0.00;;;;;;;;5100042;27;45340;-52
2024/04/04 04:39:18;;;;;;;;;0.33;0.00;;;;;;;;5098158;27;45390;-54
2024/04/04 04:41:43;;;;;;;;;1.33;0.33;;;;;;;;5100708;27;45639;-54
2024/04/04 04:44:08;;;;;;;;;2.00;0.00;;;;;;;;5088903;27;45302;-53
2024/04/04 04:46:33;;;;;;;;;1.33;0.00;;;;;;;;5093400;27;45633;-52
2024/04/04 04:48:58;;;;;;;;;1.33;0.33;;;;;;;;5084675;27;45410;-53
2024/04/04 04:51:23;;;;;;;;;0.33;0.33;;;;;;;;5078910;27;46205;-54
2024/04/04 04:53:49;;;;;;;;;0.00;0.00;;;;;;;;5097282;27;45310;-52
2024/04/04 04:56:14;;;;;;;;;0.67;0.67;;;;;;;;5093160;27;45610;-54
2024/04/04 04:58:39;;;;;;;;;0.00;0.00;;;;;;;;5100422;27;45534;-53
2024/04/04 05:01:05;;;;;;;;;1.00;1.00;;;;;;;;5097022;27;45410;-53
2024/04/04 05:03:30;;;;;;;;;0.67;0.33;;;;;;;;5089390;27;45371;-54
2024/04/04 05:05:56;;;;;;;;;1.00;1.00;;;;;;;;5099055;27;45213;-55
2024/04/04 05:08:21;;;;;;;;;1.00;0.00;;;;;;;;5088760;27;45631;-52
2024/04/04 05:10:46;;;;;;;;;2.00;0.00;;;;;;;;5097382;27;45378;-53
2024/04/04 05:13:12;;;;;;;;;0.00;0.00;;;;;;;;5088678;27;45406;-54
2024/04/04 05:15:45;;;;;;;;;0.00;0.00;;;;;;;;5095493;27;45445;-54
2024/04/04 05:18:10;;;;;;;;;0.00;0.00;;;;;;;;5097725;27;45517;-52
2024/04/04 05:20:35;;;;;;;;;0.00;0.00;;;;;;;;5096957;27;46704;-52
2024/04/04 05:23:01;;;;;;;;;1.00;0.00;;;;;;;;5097033;27;45282;-54
2024/04/04 05:25:27;;;;;;;;;0.00;0.00;;;;;;;;5095266;27;45322;-54
2024/04/04 05:27:52;;;;;;;;;0.00;0.00;;;;;;;;5097811;27;45208;-54
2024/04/04 05:30:17;;;;;;;;;0.00;0.00;;;;;;;;5092068;27;46271;-53
2024/04/04 05:32:42;;;;;;;;;0.00;0.00;;;;;;;;5093709;27;45513;-54
2024/04/04 05:35:08;;;;;;;;;0.00;0.00;;;;;;;;5093784;27;45506;-52
2024/04/04 05:37:33;;;;;;;;;0.00;0.00;;;;;;;;5079140;27;45410;-49
2024/04/04 05:39:58;;;;;;;;;0.00;0.00;;;;;;;;5097846;27;45663;-48
2024/04/04 05:42:26;;;;;;;;;0.00;0.00;;;;;;;;5092973;27;45612;-47
2024/04/04 05:44:51;;;;;;;;;0.00;0.00;;;;;;;;5098896;27;45388;-49
2024/04/04 05:47:16;;;;;;;;;0.00;0.00;;;;;;;;5098476;27;45382;-48
2024/04/04 05:49:42;;;;;;;;;0.00;0.00;;;;;;;;5103522;27;46945;-51
2024/04/04 05:52:07;;;;;;;;;0.00;0.00;;;;;;;;5095879;27;45577;-50
2024/04/04 05:54:32;;;;;;;;;0.00;0.00;;;;;;;;5090387;27;45493;-48
2024/04/04 05:56:57;;;;;;;;;0.00;0.00;;;;;;;;5087996;27;45377;-48
2024/04/04 05:59:23;;;;;;;;;0.00;0.00;;;;;;;;5088548;27;45326;-48
2024/04/04 06:01:48;;;;;;;;;0.00;0.00;;;;;;;;5090167;27;45563;-47
2024/04/04 06:04:13;;;;;;;;;0.00;0.00;;;;;;;;5095755;27;45473;-50
2024/04/04 06:06:41;;;;;;;;;0.33;0.33;;;;;;;;5098097;27;45300;-52
2024/04/04 06:09:07;;;;;;;;;0.00;0.00;;;;;;;;5093156;27;45749;-50
2024/04/04 06:11:32;;;;;;;;;0.00;0.00;;;;;;;;5091059;27;45387;-48
2024/04/04 06:13:57;;;;;;;;;0.00;0.00;;;;;;;;5093384;27;45713;-48
2024/04/04 06:16:22;;;;;;;;;0.00;0.00;;;;;;;;5094857;27;45505;-47
2024/04/04 06:18:47;;;;;;;;;1.00;0.00;;;;;;;;5086707;27;47466;-50
2024/04/04 06:21:13;;;;;;;;;0.67;0.00;;;;;;;;5088210;27;45310;-50
2024/04/04 06:23:38;;;;;;;;;1.33;0.00;;;;;;;;5094958;27;46468;-50
2024/04/04 06:26:04;;;;;;;;;0.00;0.00;;;;;;;;5101528;27;45457;-47
2024/04/04 06:28:29;;;;;;;;;2.00;0.33;;;;;;;;5085810;27;46324;-51
2024/04/04 06:30:54;;;;;;;;;1.00;0.00;;;;;;;;5098852;27;45410;-48
2024/04/04 06:33:19;;;;;;;;;0.00;0.00;;;;;;;;5098342;27;45402;-67
2024/04/04 06:35:44;;;;;;;;;1.00;1.00;;;;;;;;5079748;27;45445;-63
2024/04/04 06:38:10;;;;;;;;;1.67;0.00;;;;;;;;5079792;27;47960;-55
2024/04/04 06:40:38;;;;;;;;;0.00;0.00;;;;;;;;5101248;27;45523;-50
2024/04/04 06:43:04;;;;;;;;;0.00;0.00;;;;;;;;5102991;27;45432;-55
2024/04/04 06:45:30;;;;;;;;;0.00;0.00;;;;;;;;5087069;27;45420;-56
2024/04/04 06:47:58;;;;;;;;;0.00;0.00;;;;;;;;5101724;27;45452;-56
2024/04/04 06:50:25;;;;;;;;;0.00;0.00;;;;;;;;5100857;27;45488;-53
2024/04/04 06:52:50;;;;;;;;;0.00;0.00;;;;;;;;5098340;27;45428;-53
2024/04/04 06:55:15;;;;;;;;;0.00;0.00;;;;;;;;5100802;27;45514;-55
2024/04/04 06:57:40;;;;;;;;;0.00;0.00;;;;;;;;5101581;27;45334;-53
2024/04/04 07:00:07;;;;;;;;;0.00;0.00;;;;;;;;5099987;27;45825;-54
2024/04/04 07:02:32;;;;;;;;;0.00;0.00;;;;;;;;5080780;27;45342;-54
2024/04/04 07:04:57;;;;;;;;;0.00;0.00;;;;;;;;5100911;27;45326;-56
2024/04/04 07:07:22;;;;;;;;;0.67;0.67;;;;;;;;5082136;27;47930;-56
2024/04/04 07:09:48;;;;;;;;;0.33;0.00;;;;;;;;5101033;27;45524;-55
2024/04/04 07:12:13;;;;;;;;;0.00;0.00;;;;;;;;5097408;27;45419;-51
2024/04/04 07:14:39;;;;;;;;;0.00;0.00;;;;;;;;5081133;27;45547;-53
2024/04/04 07:17:04;;;;;;;;;1.00;0.00;;;;;;;;5081393;27;47432;-51
2024/04/04 07:19:29;;;;;;;;;0.00;0.00;;;;;;;;5099044;27;46430;-51
2024/04/04 07:21:54;;;;;;;;;0.00;0.00;;;;;;;;5077913;27;45407;-50
2024/04/04 07:24:20;;;;;;;;;1.67;0.00;;;;;;;;5098481;27;45571;-51
2024/04/04 07:26:48;;;;;;;;;0.00;0.00;;;;;;;;5098861;27;46270;-52
2024/04/04 07:29:13;;;;;;;;;0.00;0.00;;;;;;;;5093453;27;45241;-49
2024/04/04 07:31:38;;;;;;;;;0.00;0.00;;;;;;;;5095783;27;45583;-48
2024/04/04 07:34:03;;;;;;;;;0.00;0.00;;;;;;;;5098765;27;49054;-50
2024/04/04 07:36:29;;;;;;;;;0.00;0.00;;;;;;;;5097234;27;45987;-49
2024/04/04 07:38:55;;;;;;;;;0.00;0.00;;;;;;;;5100964;27;45347;-47
2024/04/04 07:41:20;;;;;;;;;2.00;0.33;;;;;;;;5098130;27;45409;-50
2024/04/04 07:43:47;;;;;;;;;0.00;0.00;;;;;;;;5093127;27;45821;-50
2024/04/04 07:46:12;;;;;;;;;1.33;0.00;;;;;;;;5097207;27;45757;-49
2024/04/04 07:48:42;;;;;;;;;0.00;0.00;;;;;;;;5100530;27;45883;-50
2024/04/04 07:51:09;;;;;;;;;1.67;0.33;;;;;;;;5074602;27;45441;-51
2024/04/04 07:53:34;;;;;;;;;0.33;0.33;;;;;;;;5090466;27;45277;-51
2024/04/04 07:55:59;;;;;;;;;2.00;0.33;;;;;;;;5080416;27;47936;-50
2024/04/04 07:58:24;;;;;;;;;1.67;0.67;;;;;;;;5095652;27;45425;-51
2024/04/04 08:00:49;;;;;;;;;1.00;0.00;;;;;;;;5092422;27;45563;-51
2024/04/04 08:03:16;;;;;;;;;0.00;0.00;;;;;;;;5099852;27;45482;-53
2024/04/04 08:05:42;;;;;;;;;0.00;0.00;;;;;;;;5097820;27;46617;-53
2024/04/04 08:08:07;;;;;;;;;0.00;0.00;;;;;;;;5097686;27;45630;-52
2024/04/04 08:10:33;;;;;;;;;0.00;0.00;;;;;;;;5090526;27;45619;-52
2024/04/04 08:12:58;;;;;;;;;0.00;0.00;;;;;;;;5093727;27;45579;-51
2024/04/04 08:15:23;;;;;;;;;0.00;0.00;;;;;;;;5096049;27;47017;-51
2024/04/04 08:17:49;;;;;;;;;1.00;0.00;;;;;;;;5091319;27;45382;-52
2024/04/04 08:20:14;;;;;;;;;0.00;0.00;;;;;;;;5099921;27;45394;-52
2024/04/04 08:22:39;;;;;;;;;0.00;0.00;;;;;;;;5099048;27;45530;-51
2024/04/04 08:25:05;;;;;;;;;1.00;1.00;;;;;;;;5076054;27;48621;-51
2024/04/04 08:27:30;;;;;;;;;0.00;0.00;;;;;;;;5093863;27;45245;-51
2024/04/04 08:29:55;;;;;;;;;0.00;0.00;;;;;;;;5099827;27;45405;-50
2024/04/04 08:32:20;;;;;;;;;0.00;0.00;;;;;;;;5096805;27;45523;-51
2024/04/04 08:34:46;;;;;;;;;0.00;0.00;;;;;;;;5096359;27;46095;-48
2024/04/04 08:37:11;;;;;;;;;1.00;0.00;;;;;;;;5099103;27;45392;-48
2024/04/04 08:39:38;;;;;;;;;0.67;0.00;;;;;;;;5098370;27;45401;-52
2024/04/04 08:42:04;;;;;;;;;0.00;0.00;;;;;;;;5092572;27;45724;-50
2024/04/04 08:44:30;;;;;;;;;0.00;0.00;;;;;;;;5097183;27;45629;-51
2024/04/04 08:46:56;;;;;;;;;0.00;0.00;;;;;;;;5089270;27;45545;-50
2024/04/04 08:49:25;;;;;;;;;0.00;0.00;;;;;;;;5075741;27;45506;-50
2024/04/04 08:51:51;;;;;;;;;0.00;0.00;;;;;;;;5073110;27;45657;-50
2024/04/04 08:54:20;;;;;;;;;0.00;0.00;;;;;;;;5094514;27;45358;-49
2024/04/04 08:56:46;;;;;;;;;0.00;0.00;;;;;;;;5076488;27;46497;-50
2024/04/04 08:59:11;;;;;;;;;0.00;0.00;;;;;;;;5096398;27;45342;-50
2024/04/04 09:01:36;;;;;;;;;0.00;0.00;;;;;;;;5094251;27;45446;-52
2024/04/04 09:04:01;;;;;;;;;1.67;1.00;;;;;;;;5089328;27;45428;-50
2024/04/04 09:06:27;;;;;;;;;0.00;0.00;;;;;;;;5077780;27;45517;-52
2024/04/04 09:08:55;;;;;;;;;0.33;0.00;;;;;;;;5100978;27;45345;-50
2024/04/04 09:11:26;;;;;;;;;0.00;0.00;;;;;;;;5091359;27;45399;-53
2024/04/04 09:14:09;;;;;;;;;0.00;0.00;;;;;;;;5093894;27;45613;-48
2024/04/04 09:16:35;;;;;;;;;0.00;0.00;;;;;;;;5095919;27;45463;-52
2024/04/04 09:19:07;;;;;;;;;0.00;0.00;;;;;;;;5093268;27;45426;-51
2024/04/04 09:21:32;;;;;;;;;0.33;0.33;;;;;;;;5098432;27;46193;-49
2024/04/04 09:23:57;;;;;;;;;0.67;0.33;;;;;;;;5092178;27;45972;-50
2024/04/04 09:26:23;;;;;;;;;0.00;0.00;;;;;;;;5098168;27;45244;-52
2024/04/04 09:28:48;;;;;;;;;0.00;0.00;;;;;;;;5090531;27;45389;-53
2024/04/04 09:31:15;;;;;;;;;0.67;0.67;;;;;;;;5099905;27;45465;-52
2024/04/04 09:33:42;;;;;;;;;1.00;1.00;;;;;;;;5089578;27;46043;-50
2024/04/04 09:36:08;;;;;;;;;0.00;0.00;;;;;;;;5094693;27;45362;-49
2024/04/04 09:38:33;;;;;;;;;0.00;0.00;;;;;;;;5081841;27;45428;-48
2024/04/04 09:41:00;;;;;;;;;1.75;1.00;;;;;;;;5067169;27;45351;-49
2024/04/04 09:43:26;;;;;;;;;2.00;1.00;;;;;;;;5091995;27;46184;-48
2024/04/04 09:45:52;;;;;;;;;1.00;0.00;;;;;;;;5098488;27;45390;-51
2024/04/04 09:48:17;;;;;;;;;0.00;0.00;;;;;;;;5089851;27;45409;-50
2024/04/04 09:50:42;;;;;;;;;0.00;0.00;;;;;;;;5096860;27;45347;-51
2024/04/04 09:53:08;;;;;;;;;0.00;0.00;;;;;;;;5089474;27;46513;-48
2024/04/04 09:55:33;;;;;;;;;0.00;0.00;;;;;;;;5096390;27;45406;-48
2024/04/04 09:57:59;;;;;;;;;5.50;2.00;;;;;;;;5098773;27;45365;-48
2024/04/04 10:00:27;;;;;;;;;1.00;1.00;;;;;;;;5094272;27;45632;-48
2024/04/04 10:02:56;;;;;;;;;0.00;0.00;;;;;;;;5093126;27;45440;-48
2024/04/04 10:05:30;;;;;;;;;0.20;0.00;;;;;;;;5089496;27;45307;-51
2024/04/04 10:08:05;;;;;;;;;0.40;0.40;;;;;;;;5100695;27;45777;-49
2024/04/04 10:10:31;;;;;;;;;2.50;1.00;;;;;;;;5099894;27;45589;-51
2024/04/04 10:12:57;;;;;;;;;2.00;1.50;;;;;;;;5102456;27;46242;-50
2024/04/04 10:15:22;;;;;;;;;0.20;0.00;;;;;;;;5094547;27;45369;-50
2024/04/04 10:17:52;;;;;;;;;3.25;0.25;;;;;;;;5098036;27;45324;-51
2024/04/04 10:20:18;;;;;;;;;3.75;2.00;;;;;;;;5099332;27;45479;-49
2024/04/04 10:22:43;;;;;;;;;3.60;1.00;;;;;;;;5094819;27;45398;-51
2024/04/04 10:25:09;;;;;;;;;1.00;1.00;;;;;;;;5098161;27;45492;-48
2024/04/04 10:27:34;;;;;;;;;1.25;1.00;;;;;;;;5082517;27;45457;-50
2024/04/04 10:29:59;;;;;;;;;1.00;1.00;;;;;;;;5100804;27;45629;-51
2024/04/04 10:32:27;;;;;;;;;2.00;1.00;;;;;;;;5088395;27;46243;-49
2024/04/04 10:34:59;;;;;;;;;2.40;1.20;;;;;;;;5095726;27;45421;-48
2024/04/04 10:37:24;;;;;;;;;0.00;0.00;;;;;;;;5096853;27;45386;-51
2024/04/04 10:39:50;;;;;;;;;1.75;1.75;;;;;;;;5094259;27;45546;-51
2024/04/04 10:42:16;;;;;;;;;1.00;1.00;;;;;;;;5088816;27;45641;-50
2024/04/04 10:44:41;;;;;;;;;3.00;2.40;;;;;;;;5087607;27;45785;-48
2024/04/04 10:47:07;;;;;;;;;2.75;1.50;;;;;;;;5100090;27;45369;-46
2024/04/04 10:49:33;;;;;;;;;3.00;3.00;;;;;;;;5091896;27;45643;-48
2024/04/04 10:52:02;;;;;;;;;5.00;0.75;;;;;;;;5102123;27;45320;-52
2024/04/04 10:54:28;;;;;;;;;1.00;0.80;;;;;;;;5092447;27;45303;-49
2024/04/04 10:56:53;;;;;;;;;1.25;1.25;;;;;;;;5092951;27;45457;-51
2024/04/04 10:59:19;;;;;;;;;0.50;0.50;;;;;;;;5094779;27;45596;-48
2024/04/04 11:01:45;;;;;;;;;1.75;1.25;;;;;;;;5102156;27;45448;-52
2024/04/04 11:04:11;;;;;;;;;0.50;0.25;;;;;;;;5089300;27;45346;-48
2024/04/04 11:06:37;;;;;;;;;3.00;2.60;;;;;;;;5095681;27;45913;-52
2024/04/04 11:09:10;;;;;;;;;0.50;0.50;;;;;;;;5101328;27;46014;-47
2024/04/04 11:11:35;;;;;;;;;2.00;1.00;;;;;;;;5100569;27;46163;-50
2024/04/04 11:14:00;;;;;;;;;3.00;2.00;;;;;;;;5096717;27;45153;-50
2024/04/04 11:16:26;;;;;;;;;1.25;1.25;;;;;;;;5099144;27;45645;-52
2024/04/04 11:18:51;;;;;;;;;3.00;1.50;;;;;;;;5101796;27;45211;-50
2024/04/04 11:21:16;;;;;;;;;3.25;2.25;;;;;;;;5100908;27;45371;-51
2024/04/04 11:23:42;;;;;;;;;1.50;1.50;;;;;;;;5101546;27;45416;-50
2024/04/04 11:26:07;;;;;;;;;1.25;1.25;;;;;;;;5082709;27;45572;-50
2024/04/04 11:28:32;;;;;;;;;1.75;1.00;;;;;;;;5101385;27;45564;-48
2024/04/04 11:30:57;;;;;;;;;2.75;1.00;;;;;;;;5100220;27;45505;-50
2024/04/04 11:33:23;;;;;;;;;3.75;1.00;;;;;;;;5100011;27;45359;-52
2024/04/04 11:35:48;;;;;;;;;0.75;0.75;;;;;;;;5101367;27;45374;-51
2024/04/04 11:38:13;;;;;;;;;1.75;1.00;;;;;;;;5095607;27;45224;-50
2024/04/04 11:40:38;;;;;;;;;3.00;1.50;;;;;;;;5094158;27;46280;-51
2024/04/04 11:43:04;;;;;;;;;4.75;1.75;;;;;;;;5100678;27;45357;-48
2024/04/04 11:45:29;;;;;;;;;3.25;2.50;;;;;;;;5101092;27;45290;-49
2024/04/04 11:47:55;;;;;;;;;1.25;0.00;;;;;;;;5083526;27;46232;-50
2024/04/04 11:50:20;;;;;;;;;0.00;0.00;;;;;;;;5093989;27;45425;-48
2024/04/04 11:52:45;;;;;;;;;0.50;0.50;;;;;;;;5101052;27;45620;-50
2024/04/04 11:55:10;;;;;;;;;1.00;1.00;;;;;;;;5100847;27;45378;-49
2024/04/04 11:57:35;;;;;;;;;2.00;1.00;;;;;;;;5089192;27;45268;-48
2024/04/04 12:00:00;;;;;;;;;1.75;0.75;;;;;;;;5094965;27;45444;-49
2024/04/04 12:02:26;;;;;;;;;2.00;2.00;;;;;;;;5095571;27;45446;-51
2024/04/04 12:04:51;;;;;;;;;3.75;1.50;;;;;;;;5094930;27;45668;-52
2024/04/04 12:07:16;;;;;;;;;1.00;0.00;;;;;;;;5100305;27;45376;-47
2024/04/04 12:09:41;;;;;;;;;3.25;3.00;;;;;;;;5101205;27;45361;-48
2024/04/04 12:12:06;;;;;;;;;2.00;1.00;;;;;;;;5099796;27;45382;-50
2024/04/04 12:14:32;;;;;;;;;5.00;2.00;;;;;;;;5094639;27;45446;-50
2024/04/04 12:16:57;;;;;;;;;2.50;1.00;;;;;;;;5098307;27;45325;-52
2024/04/04 12:19:26;;;;;;;;;1.00;1.00;;;;;;;;5096198;27;46408;-49
2024/04/04 12:21:51;;;;;;;;;1.80;0.80;;;;;;;;5097108;27;45330;-46
2024/04/04 12:24:16;;;;;;;;;1.25;0.25;;;;;;;;5081451;27;45430;-48
2024/04/04 12:26:43;;;;;;;;;2.00;0.25;;;;;;;;5098832;27;45706;-50
2024/04/04 12:29:08;;;;;;;;;3.75;1.50;;;;;;;;5080985;27;46051;-51
2024/04/04 12:31:34;;;;;;;;;4.50;1.00;;;;;;;;5100104;27;45288;-51
2024/04/04 12:34:00;;;;;;;;;5.20;2.40;;;;;;;;5100484;27;45419;-50
2024/04/04 12:36:25;;;;;;;;;4.25;1.00;;;;;;;;5100040;27;45648;-48
2024/04/04 12:38:50;;;;;;;;;1.75;1.75;;;;;;;;5099823;27;45347;-49
2024/04/04 12:41:16;;;;;;;;;5.25;1.75;;;;;;;;5097212;27;45492;-48
2024/04/04 12:43:41;;;;;;;;;2.25;1.00;;;;;;;;5099932;27;45357;-51
2024/04/04 12:46:06;;;;;;;;;2.50;2.00;;;;;;;;5098948;27;45289;-51
2024/04/04 12:48:32;;;;;;;;;2.00;1.00;;;;;;;;5100571;27;46369;-51
2024/04/04 12:50:57;;;;;;;;;3.25;2.00;;;;;;;;5099623;27;45444;-50
2024/04/04 12:53:23;;;;;;;;;3.75;1.50;;;;;;;;5099370;27;45394;-51
2024/04/04 12:55:49;;;;;;;;;4.50;2.75;;;;;;;;5100202;27;45315;-50
2024/04/04 12:58:14;;;;;;;;;0.25;0.25;;;;;;;;5099728;27;46094;-51
2024/04/04 13:00:39;;;;;;;;;2.50;1.25;;;;;;;;5099320;27;45474;-50
2024/04/04 13:03:05;;;;;;;;;1.00;1.00;;;;;;;;5099583;27;45461;-50
2024/04/04 13:05:30;;;;;;;;;1.00;1.00;;;;;;;;5098984;27;45484;-50
2024/04/04 13:07:55;;;;;;;;;2.00;2.00;;;;;;;;5099683;27;45541;-47
2024/04/04 13:10:21;;;;;;;;;1.25;0.00;;;;;;;;5089710;27;45585;-51
2024/04/04 13:12:46;;;;;;;;;4.25;3.00;;;;;;;;5098986;27;45443;-51
2024/04/04 13:15:12;;;;;;;;;2.00;1.25;;;;;;;;5078877;27;45378;-49
2024/04/04 13:17:37;;;;;;;;;6.00;2.00;;;;;;;;5099873;27;45551;-50
2024/04/04 13:20:04;;;;;;;;;1.25;1.25;;;;;;;;5099199;27;45374;-46
2024/04/04 13:22:30;;;;;;;;;4.50;3.00;;;;;;;;5099709;27;45359;-48
2024/04/04 13:24:55;;;;;;;;;2.00;1.75;;;;;;;;5098367;27;45629;-47
2024/04/04 13:27:20;;;;;;;;;2.25;2.00;;;;;;;;5098600;27;46446;-48
2024/04/04 13:29:45;;;;;;;;;2.00;2.00;;;;;;;;5095112;27;45509;-50
2024/04/04 13:32:10;;;;;;;;;0.00;0.00;;;;;;;;5098604;27;45465;-49
2024/04/04 13:34:36;;;;;;;;;0.50;0.25;;;;;;;;5098617;27;45544;-47
2024/04/04 13:37:01;;;;;;;;;2.00;2.00;;;;;;;;5098897;27;46608;-52
2024/04/04 13:39:26;;;;;;;;;0.75;0.75;;;;;;;;5098589;27;45306;-50
2024/04/04 13:41:51;;;;;;;;;2.50;1.00;;;;;;;;5080623;27;45327;-50
2024/04/04 13:44:19;;;;;;;;;6.00;1.00;;;;;;;;5094346;27;45414;-50
2024/04/04 13:46:45;;;;;;;;;2.00;1.00;;;;;;;;5103949;27;47494;-51
2024/04/04 13:49:10;;;;;;;;;3.00;3.00;;;;;;;;5106169;27;45718;-49
2024/04/04 13:51:35;;;;;;;;;3.00;1.75;;;;;;;;5099412;27;45448;-49
2024/04/04 13:54:03;;;;;;;;;2.00;1.00;;;;;;;;5099142;27;45227;-52
2024/04/04 13:56:29;;;;;;;;;2.00;1.75;;;;;;;;5099030;27;45359;-49
2024/04/04 13:58:54;;;;;;;;;4.00;1.00;;;;;;;;5086966;27;45311;-50
2024/04/04 14:01:19;;;;;;;;;2.00;1.00;;;;;;;;5092146;27;45290;-49
2024/04/04 14:03:44;;;;;;;;;2.25;0.25;;;;;;;;5087771;27;45277;-52
2024/04/04 14:06:09;;;;;;;;;1.75;1.75;;;;;;;;5088496;27;46310;-52
2024/04/04 14:08:34;;;;;;;;;2.00;1.00;;;;;;;;5087733;27;45405;-50
2024/04/04 14:11:00;;;;;;;;;3.25;1.75;;;;;;;;5085217;27;45366;-47
2024/04/04 14:13:25;;;;;;;;;3.75;2.25;;;;;;;;5077669;27;45601;-47
2024/04/04 14:15:50;;;;;;;;;1.00;1.00;;;;;;;;5087370;27;46420;-49
2024/04/04 14:18:15;;;;;;;;;3.50;1.00;;;;;;;;5094147;27;45427;-51
2024/04/04 14:20:40;;;;;;;;;3.25;2.00;;;;;;;;5079585;27;45413;-50
2024/04/04 14:23:06;;;;;;;;;2.50;1.75;;;;;;;;5073845;27;45440;-48
2024/04/04 14:25:31;;;;;;;;;1.00;1.00;;;;;;;;5091509;27;46334;-50
2024/04/04 14:27:58;;;;;;;;;2.00;0.75;;;;;;;;5092615;27;45637;-50
2024/04/04 14:30:24;;;;;;;;;6.25;2.25;;;;;;;;5098205;27;45304;-49
2024/04/04 14:32:49;;;;;;;;;0.50;0.50;;;;;;;;5096112;27;45528;-50